sensor_id;sensor_type;location;lat;lon;timestamp;temperature;humidity
9371;DHT22;4725;48.384;8.984;2023-05-14T00:01:52;6.90;99.90
9371;DHT22;4725;48.384;8.984;2023-05-14T00:04:19;8.80;99.90
9371;DHT22;4725;48.384;8.984;2023-05-14T00:06:46;8.60;99.90
9371;DHT22;4725;48.384;8.984;2023-05-14T00:09:14;8.50;99.90
9371;DHT22;4725;48.384;8.984;2023-05-14T00:11:41;8.50;99.90
9371;DHT22;4725;48.384;8.984;2023-05-14T00:14:08;8.50;99.90
9371;DHT22;4725;48.384;8.984;2023-05-14T00:16:35;8.50;99.90
9371;DHT22;4725;48.384;8.984;2023-05-14T00:19:02;8.50;99.90
9371;DHT22;4725;48.384;8.984;2023-05-14T00:21:28;8.50;99.90
9371;DHT22;4725;48.384;8.984;2023-05-14T00:23:56;8.50;99.90
9371;DHT22;4725;48.384;8.984;2023-05-14T00:26:24;8.50;99.90
9371;DHT22;4725;48.384;8.984;2023-05-14T00:28:51;8.40;99.90
9371;DHT22;4725;48.384;8.984;2023-05-14T00:31:18;8.40;99.90
9371;DHT22;4725;48.384;8.984;2023-05-14T00:33:45;8.40;99.90
9371;DHT22;4725;48.384;8.984;2023-05-14T00:36:11;8.30;99.90
9371;DHT22;4725;48.384;8.984;2023-05-14T00:38:38;8.30;99.90
9371;DHT22;4725;48.384;8.984;2023-05-14T00:41:05;8.20;99.90
9371;DHT22;4725;48.384;8.984;2023-05-14T00:43:33;8.20;99.90
9371;DHT22;4725;48.384;8.984;2023-05-14T00:46:00;8.00;99.90
9371;DHT22;4725;48.384;8.984;2023-05-14T00:48:27;8.00;99.90
9371;DHT22;4725;48.384;8.984;2023-05-14T00:50:54;7.90;99.90
9371;DHT22;4725;48.384;8.984;2023-05-14T00:53:21;7.80;99.90
9371;DHT22;4725;48.384;8.984;2023-05-14T00:55:49;7.80;99.90
9371;DHT22;4725;48.384;8.984;2023-05-14T00:58:17;7.80;99.90
9371;DHT22;4725;48.384;8.984;2023-05-14T01:00:45;7.80;99.90
9371;DHT22;4725;48.384;8.984;2023-05-14T01:03:12;7.80;99.90
9371;DHT22;4725;48.384;8.984;2023-05-14T01:05:42;7.40;99.90
9371;DHT22;4725;48.384;8.984;2023-05-14T01:08:17;7.40;99.90
9371;DHT22;4725;48.384;8.984;2023-05-14T01:10:51;7.40;99.90
9371;DHT22;4725;48.384;8.984;2023-05-14T01:13:24;7.30;99.90
9371;DHT22;4725;48.384;8.984;2023-05-14T01:15:55;7.20;99.90
9371;DHT22;4725;48.384;8.984;2023-05-14T01:18:24;7.00;99.90
9371;DHT22;4725;48.384;8.984;2023-05-14T01:20:53;7.00;99.90
9371;DHT22;4725;48.384;8.984;2023-05-14T01:23:21;6.90;99.90
9371;DHT22;4725;48.384;8.984;2023-05-14T01:25:48;6.60;99.90
9371;DHT22;4725;48.384;8.984;2023-05-14T01:28:17;6.70;99.90
9371;DHT22;4725;48.384;8.984;2023-05-14T01:30:52;6.70;99.90
9371;DHT22;4725;48.384;8.984;2023-05-14T01:33:21;6.70;99.90
9371;DHT22;4725;48.384;8.984;2023-05-14T01:35:48;6.80;99.90
9371;DHT22;4725;48.384;8.984;2023-05-14T01:38:20;6.80;99.90
9371;DHT22;4725;48.384;8.984;2023-05-14T01:40:49;7.00;99.90
9371;DHT22;4725;48.384;8.984;2023-05-14T01:43:16;6.90;99.90
9371;DHT22;4725;48.384;8.984;2023-05-14T01:45:43;7.10;99.90
9371;DHT22;4725;48.384;8.984;2023-05-14T01:48:10;7.10;99.90
9371;DHT22;4725;48.384;8.984;2023-05-14T01:50:37;7.20;99.90
9371;DHT22;4725;48.384;8.984;2023-05-14T01:53:04;7.10;99.90
9371;DHT22;4725;48.384;8.984;2023-05-14T01:55:32;7.10;99.90
9371;DHT22;4725;48.384;8.984;2023-05-14T01:57:59;7.00;99.90
9371;DHT22;4725;48.384;8.984;2023-05-14T02:00:26;6.90;99.90
9371;DHT22;4725;48.384;8.984;2023-05-14T02:02:53;6.90;99.90
9371;DHT22;4725;48.384;8.984;2023-05-14T02:05:20;6.80;99.90
9371;DHT22;4725;48.384;8.984;2023-05-14T02:07:46;6.80;99.90
9371;DHT22;4725;48.384;8.984;2023-05-14T02:10:13;6.80;99.90
9371;DHT22;4725;48.384;8.984;2023-05-14T02:12:42;6.80;99.90
9371;DHT22;4725;48.384;8.984;2023-05-14T02:15:09;6.90;99.90
9371;DHT22;4725;48.384;8.984;2023-05-14T02:17:36;6.90;99.90
9371;DHT22;4725;48.384;8.984;2023-05-14T02:20:03;7.00;99.90
9371;DHT22;4725;48.384;8.984;2023-05-14T02:22:30;7.00;99.90
9371;DHT22;4725;48.384;8.984;2023-05-14T02:24:57;7.10;99.90
9371;DHT22;4725;48.384;8.984;2023-05-14T02:27:24;7.10;99.90
9371;DHT22;4725;48.384;8.984;2023-05-14T02:29:52;7.10;99.90
9371;DHT22;4725;48.384;8.984;2023-05-14T02:32:21;7.20;99.90
9371;DHT22;4725;48.384;8.984;2023-05-14T02:34:47;7.20;99.90
9371;DHT22;4725;48.384;8.984;2023-05-14T02:37:14;7.20;99.90
9371;DHT22;4725;48.384;8.984;2023-05-14T02:39:41;7.20;99.90
9371;DHT22;4725;48.384;8.984;2023-05-14T02:42:08;7.30;99.90
9371;DHT22;4725;48.384;8.984;2023-05-14T02:44:35;7.50;99.90
9371;DHT22;4725;48.384;8.984;2023-05-14T02:47:04;7.70;99.90
9371;DHT22;4725;48.384;8.984;2023-05-14T02:49:31;7.70;99.90
9371;DHT22;4725;48.384;8.984;2023-05-14T02:51:57;7.80;99.90
9371;DHT22;4725;48.384;8.984;2023-05-14T02:54:25;7.90;99.90
9371;DHT22;4725;48.384;8.984;2023-05-14T02:56:52;8.00;99.90
9371;DHT22;4725;48.384;8.984;2023-05-14T02:59:19;8.10;99.90
9371;DHT22;4725;48.384;8.984;2023-05-14T03:01:45;8.10;99.90
9371;DHT22;4725;48.384;8.984;2023-05-14T03:04:14;8.10;99.90
9371;DHT22;4725;48.384;8.984;2023-05-14T03:06:41;8.10;99.90
9371;DHT22;4725;48.384;8.984;2023-05-14T03:09:07;8.10;99.90
9371;DHT22;4725;48.384;8.984;2023-05-14T03:11:34;8.20;99.90
9371;DHT22;4725;48.384;8.984;2023-05-14T03:14:01;8.30;99.90
9371;DHT22;4725;48.384;8.984;2023-05-14T03:16:28;8.30;99.90
9371;DHT22;4725;48.384;8.984;2023-05-14T03:18:55;8.30;99.90
9371;DHT22;4725;48.384;8.984;2023-05-14T03:21:23;8.40;99.90
9371;DHT22;4725;48.384;8.984;2023-05-14T03:23:51;8.40;99.90
9371;DHT22;4725;48.384;8.984;2023-05-14T03:26:18;8.40;99.90
9371;DHT22;4725;48.384;8.984;2023-05-14T03:28:46;8.50;99.90
9371;DHT22;4725;48.384;8.984;2023-05-14T03:31:13;8.50;99.90
9371;DHT22;4725;48.384;8.984;2023-05-14T03:33:39;8.40;99.90
9371;DHT22;4725;48.384;8.984;2023-05-14T03:36:06;8.40;99.90
9371;DHT22;4725;48.384;8.984;2023-05-14T03:38:35;8.50;99.90
9371;DHT22;4725;48.384;8.984;2023-05-14T03:41:02;8.50;99.90
9371;DHT22;4725;48.384;8.984;2023-05-14T03:43:29;8.50;99.90
9371;DHT22;4725;48.384;8.984;2023-05-14T03:45:56;8.40;99.90
9371;DHT22;4725;48.384;8.984;2023-05-14T03:48:23;8.40;99.90
9371;DHT22;4725;48.384;8.984;2023-05-14T03:50:49;8.40;99.90
9371;DHT22;4725;48.384;8.984;2023-05-14T03:53:16;8.50;99.90
9371;DHT22;4725;48.384;8.984;2023-05-14T03:55:45;8.60;99.90
9371;DHT22;4725;48.384;8.984;2023-05-14T03:58:11;8.60;99.90
9371;DHT22;4725;48.384;8.984;2023-05-14T04:00:40;8.60;99.90
9371;DHT22;4725;48.384;8.984;2023-05-14T04:03:07;8.60;99.90
9371;DHT22;4725;48.384;8.984;2023-05-14T04:05:34;8.60;99.90
9371;DHT22;4725;48.384;8.984;2023-05-14T04:08:01;8.60;99.90
9371;DHT22;4725;48.384;8.984;2023-05-14T04:10:28;8.70;99.90
9371;DHT22;4725;48.384;8.984;2023-05-14T04:12:56;8.70;99.90
9371;DHT22;4725;48.384;8.984;2023-05-14T04:15:23;8.80;99.90
9371;DHT22;4725;48.384;8.984;2023-05-14T04:17:50;8.70;99.90
9371;DHT22;4725;48.384;8.984;2023-05-14T04:20:17;8.70;99.90
9371;DHT22;4725;48.384;8.984;2023-05-14T04:25:11;8.70;99.90
9371;DHT22;4725;48.384;8.984;2023-05-14T04:27:39;8.80;99.90
9371;DHT22;4725;48.384;8.984;2023-05-14T04:30:09;8.70;99.90
9371;DHT22;4725;48.384;8.984;2023-05-14T04:32:35;8.80;99.90
9371;DHT22;4725;48.384;8.984;2023-05-14T04:35:04;8.80;99.90
9371;DHT22;4725;48.384;8.984;2023-05-14T04:37:31;8.90;99.90
9371;DHT22;4725;48.384;8.984;2023-05-14T04:39:59;8.80;99.90
9371;DHT22;4725;48.384;8.984;2023-05-14T04:42:26;8.80;99.90
9371;DHT22;4725;48.384;8.984;2023-05-14T04:44:53;8.90;99.90
9371;DHT22;4725;48.384;8.984;2023-05-14T04:47:21;8.90;99.90
9371;DHT22;4725;48.384;8.984;2023-05-14T04:49:48;8.90;99.90
9371;DHT22;4725;48.384;8.984;2023-05-14T04:52:15;9.00;99.90
9371;DHT22;4725;48.384;8.984;2023-05-14T04:54:41;9.00;99.90
9371;DHT22;4725;48.384;8.984;2023-05-14T04:57:08;9.20;99.90
9371;DHT22;4725;48.384;8.984;2023-05-14T04:59:35;9.20;99.90
9371;DHT22;4725;48.384;8.984;2023-05-14T05:02:02;9.30;99.90
9371;DHT22;4725;48.384;8.984;2023-05-14T05:04:31;9.40;99.90
9371;DHT22;4725;48.384;8.984;2023-05-14T05:06:57;9.60;99.90
9371;DHT22;4725;48.384;8.984;2023-05-14T05:11:51;9.60;99.90
9371;DHT22;4725;48.384;8.984;2023-05-14T05:14:18;9.70;99.90
9371;DHT22;4725;48.384;8.984;2023-05-14T05:16:45;9.90;99.90
9371;DHT22;4725;48.384;8.984;2023-05-14T05:19:12;9.90;99.90
9371;DHT22;4725;48.384;8.984;2023-05-14T05:21:40;10.00;99.90
9371;DHT22;4725;48.384;8.984;2023-05-14T05:24:07;10.00;99.90
9371;DHT22;4725;48.384;8.984;2023-05-14T05:26:34;10.00;99.90
9371;DHT22;4725;48.384;8.984;2023-05-14T05:29:01;10.10;99.90
9371;DHT22;4725;48.384;8.984;2023-05-14T05:31:28;10.20;99.90
9371;DHT22;4725;48.384;8.984;2023-05-14T05:33:56;10.30;99.90
9371;DHT22;4725;48.384;8.984;2023-05-14T05:36:22;10.30;99.90
9371;DHT22;4725;48.384;8.984;2023-05-14T05:38:51;10.30;99.90
9371;DHT22;4725;48.384;8.984;2023-05-14T05:41:17;10.30;99.90
9371;DHT22;4725;48.384;8.984;2023-05-14T05:43:45;10.40;99.90
9371;DHT22;4725;48.384;8.984;2023-05-14T05:46:11;10.50;99.90
9371;DHT22;4725;48.384;8.984;2023-05-14T05:48:38;10.60;99.90
9371;DHT22;4725;48.384;8.984;2023-05-14T05:51:05;10.70;99.90
9371;DHT22;4725;48.384;8.984;2023-05-14T05:53:32;10.60;99.90
9371;DHT22;4725;48.384;8.984;2023-05-14T05:56:00;10.70;99.90
9371;DHT22;4725;48.384;8.984;2023-05-14T05:58:27;10.70;99.90
9371;DHT22;4725;48.384;8.984;2023-05-14T06:00:54;10.70;99.90
9371;DHT22;4725;48.384;8.984;2023-05-14T06:05:49;10.50;99.90
9371;DHT22;4725;48.384;8.984;2023-05-14T06:08:17;10.40;99.90
9371;DHT22;4725;48.384;8.984;2023-05-14T06:10:44;10.40;99.90
9371;DHT22;4725;48.384;8.984;2023-05-14T06:15:39;10.50;99.90
9371;DHT22;4725;48.384;8.984;2023-05-14T06:18:06;10.70;99.90
9371;DHT22;4725;48.384;8.984;2023-05-14T06:20:33;10.70;99.90
9371;DHT22;4725;48.384;8.984;2023-05-14T06:23:00;11.70;99.90
9371;DHT22;4725;48.384;8.984;2023-05-14T06:25:27;10.90;99.90
9371;DHT22;4725;48.384;8.984;2023-05-14T06:27:54;11.10;99.90
9371;DHT22;4725;48.384;8.984;2023-05-14T06:30:22;11.30;99.90
9371;DHT22;4725;48.384;8.984;2023-05-14T06:32:49;11.30;99.90
9371;DHT22;4725;48.384;8.984;2023-05-14T06:35:16;11.40;99.90
9371;DHT22;4725;48.384;8.984;2023-05-14T06:37:43;11.50;99.90
9371;DHT22;4725;48.384;8.984;2023-05-14T06:40:11;11.60;99.90
9371;DHT22;4725;48.384;8.984;2023-05-14T06:45:07;11.50;99.90
9371;DHT22;4725;48.384;8.984;2023-05-14T06:50:03;11.80;99.90
9371;DHT22;4725;48.384;8.984;2023-05-14T06:52:30;11.80;99.90
9371;DHT22;4725;48.384;8.984;2023-05-14T06:54:57;11.90;99.90
9371;DHT22;4725;48.384;8.984;2023-05-14T06:57:24;12.10;99.90
9371;DHT22;4725;48.384;8.984;2023-05-14T06:59:51;12.10;99.90
9371;DHT22;4725;48.384;8.984;2023-05-14T07:02:17;12.00;99.90
9371;DHT22;4725;48.384;8.984;2023-05-14T07:04:46;11.90;99.90
9371;DHT22;4725;48.384;8.984;2023-05-14T07:07:13;12.00;99.90
9371;DHT22;4725;48.384;8.984;2023-05-14T07:09:44;12.10;99.90
9371;DHT22;4725;48.384;8.984;2023-05-14T07:12:11;12.10;99.90
9371;DHT22;4725;48.384;8.984;2023-05-14T07:14:38;12.10;99.90
9371;DHT22;4725;48.384;8.984;2023-05-14T07:17:05;12.00;99.90
9371;DHT22;4725;48.384;8.984;2023-05-14T07:19:32;12.00;99.90
9371;DHT22;4725;48.384;8.984;2023-05-14T07:22:00;12.00;99.90
9371;DHT22;4725;48.384;8.984;2023-05-14T07:24:27;11.90;99.90
9371;DHT22;4725;48.384;8.984;2023-05-14T07:26:54;11.70;99.90
9371;DHT22;4725;48.384;8.984;2023-05-14T07:29:21;11.60;99.90
9371;DHT22;4725;48.384;8.984;2023-05-14T07:31:49;11.60;99.90
9371;DHT22;4725;48.384;8.984;2023-05-14T07:34:16;11.60;99.90
9371;DHT22;4725;48.384;8.984;2023-05-14T07:36:43;11.60;99.90
9371;DHT22;4725;48.384;8.984;2023-05-14T07:39:12;11.60;99.90
9371;DHT22;4725;48.384;8.984;2023-05-14T07:41:39;11.60;99.90
9371;DHT22;4725;48.384;8.984;2023-05-14T07:44:05;11.50;99.90
9371;DHT22;4725;48.384;8.984;2023-05-14T07:46:32;11.50;99.90
9371;DHT22;4725;48.384;8.984;2023-05-14T07:48:59;11.60;99.90
9371;DHT22;4725;48.384;8.984;2023-05-14T07:51:26;11.60;99.90
9371;DHT22;4725;48.384;8.984;2023-05-14T07:53:53;11.50;99.90
9371;DHT22;4725;48.384;8.984;2023-05-14T07:56:22;11.40;99.90
9371;DHT22;4725;48.384;8.984;2023-05-14T07:58:49;11.30;99.90
9371;DHT22;4725;48.384;8.984;2023-05-14T08:01:16;11.20;99.90
9371;DHT22;4725;48.384;8.984;2023-05-14T08:03:43;11.10;99.90
9371;DHT22;4725;48.384;8.984;2023-05-14T08:06:10;11.00;99.90
9371;DHT22;4725;48.384;8.984;2023-05-14T08:08:37;11.20;99.90
9371;DHT22;4725;48.384;8.984;2023-05-14T08:11:04;11.20;99.90
9371;DHT22;4725;48.384;8.984;2023-05-14T08:13:32;11.30;99.90
9371;DHT22;4725;48.384;8.984;2023-05-14T08:15:59;11.40;99.90
9371;DHT22;4725;48.384;8.984;2023-05-14T08:18:26;11.40;99.90
9371;DHT22;4725;48.384;8.984;2023-05-14T08:20:53;11.50;99.90
9371;DHT22;4725;48.384;8.984;2023-05-14T08:23:20;11.40;99.90
9371;DHT22;4725;48.384;8.984;2023-05-14T08:25:47;11.50;99.90
9371;DHT22;4725;48.384;8.984;2023-05-14T08:28:14;11.70;99.90
9371;DHT22;4725;48.384;8.984;2023-05-14T08:30:42;11.80;99.90
9371;DHT22;4725;48.384;8.984;2023-05-14T08:33:09;11.70;99.90
9371;DHT22;4725;48.384;8.984;2023-05-14T08:35:36;11.80;99.90
9371;DHT22;4725;48.384;8.984;2023-05-14T08:38:03;12.00;99.90
9371;DHT22;4725;48.384;8.984;2023-05-14T08:40:30;12.10;99.90
9371;DHT22;4725;48.384;8.984;2023-05-14T08:42:57;12.10;99.90
9371;DHT22;4725;48.384;8.984;2023-05-14T08:45:29;12.20;99.90
9371;DHT22;4725;48.384;8.984;2023-05-14T08:48:00;12.20;99.90
9371;DHT22;4725;48.384;8.984;2023-05-14T08:50:30;12.40;99.90
9371;DHT22;4725;48.384;8.984;2023-05-14T08:52:57;12.70;99.90
9371;DHT22;4725;48.384;8.984;2023-05-14T08:55:25;12.60;99.90
9371;DHT22;4725;48.384;8.984;2023-05-14T08:57:53;12.90;99.90
9371;DHT22;4725;48.384;8.984;2023-05-14T09:00:20;12.80;99.90
9371;DHT22;4725;48.384;8.984;2023-05-14T09:02:48;12.70;99.90
9371;DHT22;4725;48.384;8.984;2023-05-14T09:05:18;12.80;99.90
9371;DHT22;4725;48.384;8.984;2023-05-14T09:07:45;13.20;99.90
9371;DHT22;4725;48.384;8.984;2023-05-14T09:10:12;13.40;99.90
9371;DHT22;4725;48.384;8.984;2023-05-14T09:12:40;13.50;99.90
9371;DHT22;4725;48.384;8.984;2023-05-14T09:15:07;13.60;99.90
9371;DHT22;4725;48.384;8.984;2023-05-14T09:17:34;13.50;99.90
9371;DHT22;4725;48.384;8.984;2023-05-14T09:20:01;13.90;99.90
9371;DHT22;4725;48.384;8.984;2023-05-14T09:22:33;13.90;99.90
9371;DHT22;4725;48.384;8.984;2023-05-14T09:25:04;13.90;99.90
9371;DHT22;4725;48.384;8.984;2023-05-14T09:27:34;13.80;99.90
9371;DHT22;4725;48.384;8.984;2023-05-14T09:30:06;14.00;99.90
9371;DHT22;4725;48.384;8.984;2023-05-14T09:32:37;14.20;99.90
9371;DHT22;4725;48.384;8.984;2023-05-14T09:35:12;15.00;99.90
9371;DHT22;4725;48.384;8.984;2023-05-14T09:37:43;15.50;99.90
9371;DHT22;4725;48.384;8.984;2023-05-14T09:40:11;15.80;99.90
9371;DHT22;4725;48.384;8.984;2023-05-14T09:42:39;16.00;99.90
9371;DHT22;4725;48.384;8.984;2023-05-14T09:45:07;15.70;99.90
9371;DHT22;4725;48.384;8.984;2023-05-14T09:47:34;16.10;99.90
9371;DHT22;4725;48.384;8.984;2023-05-14T09:50:01;16.10;99.90
9371;DHT22;4725;48.384;8.984;2023-05-14T09:52:28;15.60;99.90
9371;DHT22;4725;48.384;8.984;2023-05-14T09:54:57;16.40;99.90
9371;DHT22;4725;48.384;8.984;2023-05-14T09:57:24;16.80;99.90
9371;DHT22;4725;48.384;8.984;2023-05-14T09:59:51;16.70;99.90
9371;DHT22;4725;48.384;8.984;2023-05-14T10:02:22;17.10;99.90
9371;DHT22;4725;48.384;8.984;2023-05-14T10:04:51;17.10;99.90
9371;DHT22;4725;48.384;8.984;2023-05-14T10:07:22;17.20;99.90
9371;DHT22;4725;48.384;8.984;2023-05-14T10:09:56;17.10;99.90
9371;DHT22;4725;48.384;8.984;2023-05-14T10:12:28;16.90;99.90
9371;DHT22;4725;48.384;8.984;2023-05-14T10:14:57;17.10;99.90
9371;DHT22;4725;48.384;8.984;2023-05-14T10:17:30;17.00;99.90
9371;DHT22;4725;48.384;8.984;2023-05-14T10:19:59;16.90;99.90
9371;DHT22;4725;48.384;8.984;2023-05-14T10:22:32;17.50;99.90
9371;DHT22;4725;48.384;8.984;2023-05-14T10:24:59;17.60;99.90
9371;DHT22;4725;48.384;8.984;2023-05-14T10:27:29;17.90;99.90
9371;DHT22;4725;48.384;8.984;2023-05-14T10:29:56;18.10;99.90
9371;DHT22;4725;48.384;8.984;2023-05-14T10:32:24;18.30;99.90
9371;DHT22;4725;48.384;8.984;2023-05-14T10:34:52;18.10;99.90
9371;DHT22;4725;48.384;8.984;2023-05-14T10:37:21;17.90;99.90
9371;DHT22;4725;48.384;8.984;2023-05-14T10:39:49;18.30;99.90
9371;DHT22;4725;48.384;8.984;2023-05-14T10:42:19;18.30;99.90
9371;DHT22;4725;48.384;8.984;2023-05-14T10:44:50;18.50;99.90
9371;DHT22;4725;48.384;8.984;2023-05-14T10:47:18;18.50;99.90
9371;DHT22;4725;48.384;8.984;2023-05-14T10:49:46;18.30;99.90
9371;DHT22;4725;48.384;8.984;2023-05-14T10:52:16;18.40;99.90
9371;DHT22;4725;48.384;8.984;2023-05-14T10:54:51;19.10;99.90
9371;DHT22;4725;48.384;8.984;2023-05-14T10:57:18;19.00;99.90
9371;DHT22;4725;48.384;8.984;2023-05-14T10:59:48;19.10;99.90
9371;DHT22;4725;48.384;8.984;2023-05-14T11:02:22;19.20;99.90
9371;DHT22;4725;48.384;8.984;2023-05-14T11:04:55;19.00;99.90
9371;DHT22;4725;48.384;8.984;2023-05-14T11:07:26;19.20;99.90
9371;DHT22;4725;48.384;8.984;2023-05-14T11:09:58;19.10;99.90
9371;DHT22;4725;48.384;8.984;2023-05-14T11:12:25;19.60;99.90
9371;DHT22;4725;48.384;8.984;2023-05-14T11:14:56;19.50;99.90
9371;DHT22;4725;48.384;8.984;2023-05-14T11:17:23;19.60;99.90
9371;DHT22;4725;48.384;8.984;2023-05-14T11:19:50;19.40;99.90
9371;DHT22;4725;48.384;8.984;2023-05-14T11:22:17;19.50;99.90
9371;DHT22;4725;48.384;8.984;2023-05-14T11:24:44;19.40;99.90
9371;DHT22;4725;48.384;8.984;2023-05-14T11:27:11;18.60;99.90
9371;DHT22;4725;48.384;8.984;2023-05-14T11:29:39;18.20;99.90
9371;DHT22;4725;48.384;8.984;2023-05-14T11:32:10;18.20;99.90
9371;DHT22;4725;48.384;8.984;2023-05-14T11:34:37;19.00;99.90
9371;DHT22;4725;48.384;8.984;2023-05-14T11:37:04;20.10;99.90
9371;DHT22;4725;48.384;8.984;2023-05-14T11:39:31;20.20;99.90
9371;DHT22;4725;48.384;8.984;2023-05-14T11:41:59;19.90;99.90
9371;DHT22;4725;48.384;8.984;2023-05-14T11:44:27;20.30;99.90
9371;DHT22;4725;48.384;8.984;2023-05-14T11:46:55;22.30;99.90
9371;DHT22;4725;48.384;8.984;2023-05-14T11:49:24;22.20;99.90
9371;DHT22;4725;48.384;8.984;2023-05-14T11:51:56;22.60;99.90
9371;DHT22;4725;48.384;8.984;2023-05-14T11:54:25;22.60;99.90
9371;DHT22;4725;48.384;8.984;2023-05-14T11:56:53;23.00;99.90
9371;DHT22;4725;48.384;8.984;2023-05-14T11:59:22;22.20;99.90
9371;DHT22;4725;48.384;8.984;2023-05-14T12:01:49;22.20;99.90
9371;DHT22;4725;48.384;8.984;2023-05-14T12:04:17;22.70;99.90
9371;DHT22;4725;48.384;8.984;2023-05-14T12:06:48;21.50;99.90
9371;DHT22;4725;48.384;8.984;2023-05-14T12:09:15;21.50;99.90
9371;DHT22;4725;48.384;8.984;2023-05-14T12:11:42;21.30;99.90
9371;DHT22;4725;48.384;8.984;2023-05-14T12:14:11;22.00;99.90
9371;DHT22;4725;48.384;8.984;2023-05-14T12:16:39;23.40;99.90
9371;DHT22;4725;48.384;8.984;2023-05-14T12:19:08;23.50;99.90
9371;DHT22;4725;48.384;8.984;2023-05-14T12:21:37;24.20;99.90
9371;DHT22;4725;48.384;8.984;2023-05-14T12:24:08;24.40;99.60
9371;DHT22;4725;48.384;8.984;2023-05-14T12:26:35;23.70;99.90
9371;DHT22;4725;48.384;8.984;2023-05-14T12:29:03;22.40;99.90
9371;DHT22;4725;48.384;8.984;2023-05-14T12:31:31;21.80;99.90
9371;DHT22;4725;48.384;8.984;2023-05-14T12:33:59;21.40;99.90
9371;DHT22;4725;48.384;8.984;2023-05-14T12:36:26;20.60;99.90
9371;DHT22;4725;48.384;8.984;2023-05-14T12:38:57;20.20;99.90
9371;DHT22;4725;48.384;8.984;2023-05-14T12:41:26;20.10;99.90
9371;DHT22;4725;48.384;8.984;2023-05-14T12:43:53;19.40;99.90
9371;DHT22;4725;48.384;8.984;2023-05-14T12:46:20;19.20;99.90
9371;DHT22;4725;48.384;8.984;2023-05-14T12:48:47;20.10;99.90
9371;DHT22;4725;48.384;8.984;2023-05-14T12:51:14;18.70;99.90
9371;DHT22;4725;48.384;8.984;2023-05-14T12:53:41;19.30;99.90
9371;DHT22;4725;48.384;8.984;2023-05-14T12:56:08;20.30;99.90
9371;DHT22;4725;48.384;8.984;2023-05-14T12:58:36;21.30;99.90
9371;DHT22;4725;48.384;8.984;2023-05-14T13:01:03;22.00;99.90
9371;DHT22;4725;48.384;8.984;2023-05-14T13:03:30;21.70;99.90
9371;DHT22;4725;48.384;8.984;2023-05-14T13:05:58;21.40;99.90
9371;DHT22;4725;48.384;8.984;2023-05-14T13:08:25;21.20;99.90
9371;DHT22;4725;48.384;8.984;2023-05-14T13:10:53;21.20;99.90
9371;DHT22;4725;48.384;8.984;2023-05-14T13:13:20;21.40;99.90
9371;DHT22;4725;48.384;8.984;2023-05-14T13:15:48;22.00;99.90
9371;DHT22;4725;48.384;8.984;2023-05-14T13:18:17;22.60;99.90
9371;DHT22;4725;48.384;8.984;2023-05-14T13:20:44;23.90;99.90
9371;DHT22;4725;48.384;8.984;2023-05-14T13:23:11;24.00;99.00
9371;DHT22;4725;48.384;8.984;2023-05-14T13:25:38;24.20;99.90
9371;DHT22;4725;48.384;8.984;2023-05-14T13:28:05;24.90;97.90
9371;DHT22;4725;48.384;8.984;2023-05-14T13:30:32;24.70;97.90
9371;DHT22;4725;48.384;8.984;2023-05-14T13:33:00;24.60;98.60
9371;DHT22;4725;48.384;8.984;2023-05-14T13:35:27;25.20;97.70
9371;DHT22;4725;48.384;8.984;2023-05-14T13:37:54;25.00;97.60
9371;DHT22;4725;48.384;8.984;2023-05-14T13:40:21;25.10;97.50
9371;DHT22;4725;48.384;8.984;2023-05-14T13:42:47;24.60;97.70
9371;DHT22;4725;48.384;8.984;2023-05-14T13:45:14;23.40;99.30
9371;DHT22;4725;48.384;8.984;2023-05-14T13:47:41;20.00;99.90
9371;DHT22;4725;48.384;8.984;2023-05-14T13:50:10;19.30;99.90
9371;DHT22;4725;48.384;8.984;2023-05-14T13:52:37;18.80;99.90
9371;DHT22;4725;48.384;8.984;2023-05-14T13:55:05;17.90;99.90
9371;DHT22;4725;48.384;8.984;2023-05-14T13:57:32;16.80;99.90
9371;DHT22;4725;48.384;8.984;2023-05-14T13:59:59;18.60;99.90
9371;DHT22;4725;48.384;8.984;2023-05-14T14:02:25;16.00;99.90
9371;DHT22;4725;48.384;8.984;2023-05-14T14:04:52;15.80;99.90
9371;DHT22;4725;48.384;8.984;2023-05-14T14:07:20;15.40;99.90
9371;DHT22;4725;48.384;8.984;2023-05-14T14:09:47;15.30;99.90
9371;DHT22;4725;48.384;8.984;2023-05-14T14:12:14;15.20;99.90
9371;DHT22;4725;48.384;8.984;2023-05-14T14:14:41;14.90;99.90
9371;DHT22;4725;48.384;8.984;2023-05-14T14:17:08;14.20;99.90
9371;DHT22;4725;48.384;8.984;2023-05-14T14:19:35;14.10;99.90
9371;DHT22;4725;48.384;8.984;2023-05-14T14:22:02;13.90;99.90
9371;DHT22;4725;48.384;8.984;2023-05-14T14:24:30;13.70;99.90
9371;DHT22;4725;48.384;8.984;2023-05-14T14:26:57;13.80;99.90
9371;DHT22;4725;48.384;8.984;2023-05-14T14:29:25;13.70;99.90
9371;DHT22;4725;48.384;8.984;2023-05-14T14:31:53;13.70;99.90
9371;DHT22;4725;48.384;8.984;2023-05-14T14:34:20;13.60;99.90
9371;DHT22;4725;48.384;8.984;2023-05-14T14:36:47;13.50;99.90
9371;DHT22;4725;48.384;8.984;2023-05-14T14:39:13;13.50;99.90
9371;DHT22;4725;48.384;8.984;2023-05-14T14:41:42;13.60;99.90
9371;DHT22;4725;48.384;8.984;2023-05-14T14:44:09;13.90;99.90
9371;DHT22;4725;48.384;8.984;2023-05-14T14:46:36;14.00;99.90
9371;DHT22;4725;48.384;8.984;2023-05-14T14:49:02;13.90;99.90
9371;DHT22;4725;48.384;8.984;2023-05-14T14:51:29;13.90;99.90
9371;DHT22;4725;48.384;8.984;2023-05-14T14:53:57;13.70;99.90
9371;DHT22;4725;48.384;8.984;2023-05-14T14:56:25;13.50;99.90
9371;DHT22;4725;48.384;8.984;2023-05-14T14:58:53;13.40;99.90
9371;DHT22;4725;48.384;8.984;2023-05-14T15:01:20;13.40;99.90
9371;DHT22;4725;48.384;8.984;2023-05-14T15:03:47;13.40;99.90
9371;DHT22;4725;48.384;8.984;2023-05-14T15:06:14;13.40;99.90
9371;DHT22;4725;48.384;8.984;2023-05-14T15:08:41;13.40;99.90
9371;DHT22;4725;48.384;8.984;2023-05-14T15:11:08;13.40;99.90
9371;DHT22;4725;48.384;8.984;2023-05-14T15:13:35;13.40;99.90
9371;DHT22;4725;48.384;8.984;2023-05-14T15:16:03;13.50;99.90
9371;DHT22;4725;48.384;8.984;2023-05-14T15:18:30;13.50;99.90
9371;DHT22;4725;48.384;8.984;2023-05-14T15:20:57;13.50;99.90
9371;DHT22;4725;48.384;8.984;2023-05-14T15:23:24;13.30;99.90
9371;DHT22;4725;48.384;8.984;2023-05-14T15:25:50;13.20;99.90
9371;DHT22;4725;48.384;8.984;2023-05-14T15:28:17;12.60;99.90
9371;DHT22;4725;48.384;8.984;2023-05-14T15:30:46;12.50;99.90
9371;DHT22;4725;48.384;8.984;2023-05-14T15:33:15;12.40;99.90
9371;DHT22;4725;48.384;8.984;2023-05-14T15:35:43;12.40;99.90
9371;DHT22;4725;48.384;8.984;2023-05-14T15:38:10;12.40;99.90
9371;DHT22;4725;48.384;8.984;2023-05-14T15:40:37;12.40;99.90
9371;DHT22;4725;48.384;8.984;2023-05-14T15:43:04;12.30;99.90
9371;DHT22;4725;48.384;8.984;2023-05-14T15:45:31;12.30;99.90
9371;DHT22;4725;48.384;8.984;2023-05-14T15:47:58;12.40;99.90
9371;DHT22;4725;48.384;8.984;2023-05-14T15:50:26;12.50;99.90
9371;DHT22;4725;48.384;8.984;2023-05-14T15:52:53;12.60;99.90
9371;DHT22;4725;48.384;8.984;2023-05-14T15:55:20;12.70;99.90
9371;DHT22;4725;48.384;8.984;2023-05-14T15:57:47;13.10;99.90
9371;DHT22;4725;48.384;8.984;2023-05-14T16:00:14;13.30;99.90
9371;DHT22;4725;48.384;8.984;2023-05-14T16:02:42;13.60;99.90
9371;DHT22;4725;48.384;8.984;2023-05-14T16:05:09;13.60;99.90
9371;DHT22;4725;48.384;8.984;2023-05-14T16:07:37;13.50;99.90
9371;DHT22;4725;48.384;8.984;2023-05-14T16:10:05;13.40;99.90
9371;DHT22;4725;48.384;8.984;2023-05-14T16:12:32;13.30;99.90
9371;DHT22;4725;48.384;8.984;2023-05-14T16:14:59;13.20;99.90
9371;DHT22;4725;48.384;8.984;2023-05-14T16:17:26;13.20;99.90
9371;DHT22;4725;48.384;8.984;2023-05-14T16:19:54;13.20;99.90
9371;DHT22;4725;48.384;8.984;2023-05-14T16:22:21;13.10;99.90
9371;DHT22;4725;48.384;8.984;2023-05-14T16:24:49;13.10;99.90